createdAt,value
2022-10-19T00:01:15.532Z,8.68
2022-10-19T00:03:43.463Z,8.55
2022-10-19T00:06:13.008Z,8.85
2022-10-19T00:08:40.495Z,7.90
2022-10-19T00:11:08.718Z,9.10
2022-10-19T00:13:36.547Z,11.30
2022-10-19T00:16:11.347Z,11.82
2022-10-19T00:18:39.535Z,12.57
2022-10-19T00:21:08.959Z,11.57
2022-10-19T00:23:37.109Z,12.02
2022-10-19T00:26:05.130Z,12.25
2022-10-19T00:28:35.601Z,12.00
2022-10-19T00:31:05.537Z,11.20
2022-10-19T00:33:33.536Z,11.07
2022-10-19T00:36:01.127Z,10.73
2022-10-19T00:38:28.561Z,12.75
2022-10-19T00:40:55.989Z,10.30
2022-10-19T00:43:29.189Z,9.90
2022-10-19T00:45:56.590Z,9.70
2022-10-19T00:48:28.294Z,9.63
2022-10-19T00:50:58.540Z,9.90
2022-10-19T00:53:28.954Z,8.85
2022-10-19T00:55:58.753Z,9.07
2022-10-19T00:58:26.170Z,8.82
2022-10-19T01:00:54.032Z,9.13
2022-10-19T01:03:21.888Z,9.00
2022-10-19T01:05:49.997Z,8.60
2022-10-19T01:08:18.021Z,9.70
2022-10-19T01:10:55.690Z,8.80
2022-10-19T01:14:05.986Z,8.88
2022-10-19T01:16:57.808Z,9.40
2022-10-19T01:19:50.349Z,9.00
2022-10-19T01:22:51.289Z,8.82
2022-10-19T01:25:21.842Z,8.90
2022-10-19T01:28:03.034Z,9.55
2022-10-19T01:30:30.617Z,9.40
2022-10-19T01:33:19.922Z,8.77
2022-10-19T01:35:51.648Z,11.02
2022-10-19T01:38:46.806Z,13.85
2022-10-19T01:41:17.302Z,12.65
2022-10-19T01:44:03.859Z,11.40
2022-10-19T01:46:44.206Z,9.95
2022-10-19T01:49:18.374Z,10.55
2022-10-19T01:54:27.009Z,10.60
2022-10-19T01:56:57.089Z,9.93
2022-10-19T01:59:26.676Z,10.90
2022-10-19T02:01:56.138Z,9.75
2022-10-19T02:04:25.201Z,10.27
2022-10-19T02:06:54.631Z,11.27
2022-10-19T02:09:22.258Z,12.18
2022-10-19T02:11:57.275Z,10.77
2022-10-19T02:14:30.827Z,10.82
2022-10-19T02:17:28.338Z,12.38
2022-10-19T02:19:55.884Z,10.98
2022-10-19T02:22:23.296Z,11.38
2022-10-19T02:24:51.095Z,11.02
2022-10-19T02:27:19.355Z,11.32
2022-10-19T02:29:47.118Z,13.93
2022-10-19T02:32:15.329Z,15.85
2022-10-19T02:34:44.112Z,17.42
2022-10-19T02:37:12.123Z,16.65
2022-10-19T02:39:41.594Z,14.45
2022-10-19T02:42:20.690Z,14.93
2022-10-19T02:44:53.523Z,13.75
2022-10-19T02:47:28.148Z,13.55
2022-10-19T02:49:55.995Z,14.00
2022-10-19T02:52:23.519Z,13.32
2022-10-19T02:54:51.080Z,14.10
2022-10-19T02:57:22.054Z,12.85
2022-10-19T02:59:49.940Z,12.70
2022-10-19T03:02:18.944Z,11.60
2022-10-19T03:07:17.539Z,12.52
2022-10-19T03:09:45.268Z,11.63
2022-10-19T03:12:14.127Z,12.20
2022-10-19T03:14:42.662Z,11.65
2022-10-19T03:17:10.203Z,10.82
2022-10-19T03:19:38.305Z,11.32
2022-10-19T03:22:06.410Z,13.05
2022-10-19T03:24:34.253Z,11.70
2022-10-19T03:27:02.562Z,12.57
2022-10-19T03:29:30.256Z,13.00
2022-10-19T03:31:58.046Z,14.20
2022-10-19T03:34:25.530Z,13.63
2022-10-19T03:36:52.897Z,13.88
2022-10-19T03:39:22.486Z,14.45
2022-10-19T03:41:50.031Z,12.40
2022-10-19T03:44:18.069Z,16.75
2022-10-19T03:46:45.824Z,16.30
2022-10-19T03:49:13.619Z,14.70
2022-10-19T03:51:41.132Z,18.00
2022-10-19T03:54:17.003Z,16.70
2022-10-19T03:59:14.758Z,15.02
2022-10-19T04:01:46.020Z,16.10
2022-10-19T04:04:19.357Z,14.73
2022-10-19T04:09:18.340Z,15.93
2022-10-19T04:11:46.542Z,17.58
2022-10-19T04:14:22.926Z,16.52
2022-10-19T04:17:01.653Z,19.00
2022-10-19T04:19:29.214Z,33.10
2022-10-19T04:21:57.771Z,26.75
2022-10-19T04:24:26.269Z,36.38
2022-10-19T04:26:58.252Z,47.58
2022-10-19T04:29:29.810Z,49.38
2022-10-19T04:31:59.306Z,41.53
2022-10-19T04:34:26.921Z,37.90
2022-10-19T04:36:54.737Z,39.00
2022-10-19T04:39:22.256Z,33.85
2022-10-19T04:41:49.704Z,28.40
2022-10-19T04:44:17.427Z,28.58
2022-10-19T04:46:45.414Z,29.27
2022-10-19T04:49:18.013Z,28.05
2022-10-19T04:51:48.225Z,28.80
2022-10-19T04:54:15.556Z,27.35
2022-10-19T04:56:42.988Z,25.75
2022-10-19T04:59:12.056Z,24.75
2022-10-19T05:01:46.559Z,20.17
2022-10-19T05:04:15.003Z,16.80
2022-10-19T05:06:42.567Z,20.15
2022-10-19T05:09:12.177Z,20.17
2022-10-19T05:11:39.830Z,20.20
2022-10-19T05:14:07.406Z,20.30
2022-10-19T05:16:35.080Z,20.85
2022-10-19T05:19:02.992Z,28.85
2022-10-19T05:21:39.004Z,33.80
2022-10-19T05:24:11.942Z,26.63
2022-10-19T05:26:39.627Z,21.67
2022-10-19T05:29:07.139Z,21.40
2022-10-19T05:31:35.137Z,21.52
2022-10-19T05:34:04.335Z,18.95
2022-10-19T05:36:37.783Z,19.23
2022-10-19T05:39:10.085Z,16.42
2022-10-19T05:41:38.504Z,15.77
2022-10-19T05:44:06.512Z,16.25
2022-10-19T05:46:34.915Z,14.63
2022-10-19T05:49:02.619Z,75.60
2022-10-19T05:51:30.083Z,74.43
2022-10-19T05:53:57.815Z,53.45
2022-10-19T05:56:28.291Z,35.75
2022-10-19T05:58:56.952Z,14.15
2022-10-19T06:01:24.637Z,13.02
2022-10-19T06:03:54.507Z,11.95
2022-10-19T06:06:22.698Z,11.85
2022-10-19T06:08:53.617Z,11.38
2022-10-19T06:11:30.174Z,10.93
2022-10-19T06:13:59.693Z,10.75
2022-10-19T06:16:27.595Z,11.52
2022-10-19T06:18:55.714Z,11.13
2022-10-19T06:21:26.588Z,10.60
2022-10-19T06:23:56.383Z,11.45
2022-10-19T06:26:24.748Z,11.43
2022-10-19T06:28:54.566Z,9.85
2022-10-19T06:31:21.784Z,11.63
2022-10-19T06:33:49.651Z,13.05
2022-10-19T06:36:20.785Z,13.40
2022-10-19T06:38:54.064Z,14.27
2022-10-19T06:41:21.426Z,15.52
2022-10-19T06:43:53.701Z,16.05
2022-10-19T06:46:23.601Z,15.13
2022-10-19T06:48:58.630Z,15.05
2022-10-19T06:51:28.140Z,14.55
2022-10-19T06:53:57.157Z,11.65
2022-10-19T06:56:25.900Z,11.85
2022-10-19T06:58:53.831Z,11.43
2022-10-19T07:01:21.763Z,11.70
2022-10-19T07:03:51.310Z,12.10
2022-10-19T07:06:19.368Z,11.30
2022-10-19T07:08:47.069Z,11.65
2022-10-19T07:11:19.628Z,11.85
2022-10-19T07:13:47.147Z,10.85
2022-10-19T07:16:20.624Z,12.32
2022-10-19T07:18:50.750Z,10.57
2022-10-19T07:21:18.962Z,11.80
2022-10-19T07:23:50.633Z,11.98
2022-10-19T07:26:27.602Z,10.93
2022-10-19T07:28:58.229Z,11.70
2022-10-19T07:31:26.996Z,11.02
2022-10-19T07:34:00.145Z,11.98
2022-10-19T07:36:28.948Z,10.57
2022-10-19T07:38:56.378Z,11.88
2022-10-19T07:41:25.662Z,12.52
2022-10-19T07:43:53.578Z,12.52
2022-10-19T07:46:23.262Z,12.10
2022-10-19T07:48:50.499Z,12.38
2022-10-19T07:51:19.418Z,12.50
2022-10-19T07:53:47.166Z,13.90
2022-10-19T07:56:17.937Z,11.48
2022-10-19T07:59:52.261Z,13.65
2022-10-19T08:02:20.362Z,14.98
2022-10-19T08:05:06.390Z,14.73
2022-10-19T08:07:34.904Z,12.45
2022-10-19T08:10:02.073Z,12.10
2022-10-19T08:12:29.197Z,11.75
2022-10-19T08:14:57.037Z,12.50
2022-10-19T08:17:24.336Z,13.30
2022-10-19T08:19:51.659Z,13.10
2022-10-19T08:22:19.090Z,11.50
2022-10-19T08:24:46.428Z,11.40
2022-10-19T08:27:15.151Z,11.13
2022-10-19T08:29:42.403Z,11.98
2022-10-19T08:32:09.762Z,10.65
2022-10-19T08:34:37.272Z,11.68
2022-10-19T08:37:10.463Z,10.73
2022-10-19T08:39:47.297Z,8.20
2022-10-19T08:43:03.264Z,5.85
2022-10-19T08:45:38.605Z,5.30
2022-10-19T08:48:27.549Z,4.97
2022-10-19T08:50:57.356Z,4.35
2022-10-19T08:53:38.445Z,4.35
2022-10-19T08:56:49.208Z,4.28
2022-10-19T08:59:53.630Z,3.92
2022-10-19T09:02:31.486Z,4.45
2022-10-19T09:05:05.904Z,4.35
2022-10-19T09:07:45.779Z,4.32
2022-10-19T09:10:17.105Z,4.82
2022-10-19T09:12:59.570Z,4.47
2022-10-19T09:15:42.037Z,5.28
2022-10-19T09:18:25.097Z,4.07
2022-10-19T09:21:08.055Z,3.90
2022-10-19T09:23:55.376Z,4.05
2022-10-19T09:26:28.306Z,3.65
2022-10-19T09:29:21.344Z,4.50
2022-10-19T09:31:54.680Z,4.20
2022-10-19T09:34:36.641Z,4.60
2022-10-19T09:37:04.503Z,4.43
2022-10-19T09:39:32.011Z,4.05
2022-10-19T09:42:17.473Z,4.10
2022-10-19T09:44:44.990Z,4.25
2022-10-19T09:47:20.305Z,4.28
2022-10-19T09:49:50.794Z,4.13
2022-10-19T09:52:34.093Z,4.07
2022-10-19T09:55:34.080Z,4.55
2022-10-19T09:58:13.905Z,3.70
2022-10-19T10:00:46.945Z,3.80
2022-10-19T10:03:26.796Z,3.60
2022-10-19T10:05:55.989Z,3.92
2022-10-19T10:08:25.954Z,4.05
2022-10-19T10:11:11.496Z,4.32
2022-10-19T10:13:48.837Z,3.92
2022-10-19T10:16:18.362Z,4.40
2022-10-19T10:18:55.070Z,4.85
2022-10-19T10:21:26.252Z,4.50
2022-10-19T10:24:11.852Z,4.40
2022-10-19T10:26:44.451Z,4.95
2022-10-19T10:29:27.904Z,4.60
2022-10-19T10:32:13.581Z,4.60
2022-10-19T10:34:51.980Z,4.32
2022-10-19T10:37:38.053Z,4.35
2022-10-19T10:40:08.126Z,4.97
2022-10-19T10:42:42.500Z,4.60
2022-10-19T10:45:39.897Z,3.80
2022-10-19T10:48:19.317Z,4.30
2022-10-19T10:50:46.711Z,3.78
2022-10-19T10:53:32.974Z,4.22
2022-10-19T10:56:00.529Z,3.97
2022-10-19T10:58:36.152Z,3.92
2022-10-19T11:01:08.057Z,4.00
2022-10-19T11:03:39.822Z,3.15
2022-10-19T11:06:11.600Z,3.03
2022-10-19T11:09:11.861Z,2.90
2022-10-19T11:11:46.928Z,3.33
2022-10-19T11:14:49.966Z,3.17
2022-10-19T11:17:30.534Z,3.30
2022-10-19T11:19:57.729Z,3.22
2022-10-19T11:22:35.775Z,3.20
2022-10-19T11:25:21.800Z,2.85
2022-10-19T11:28:11.245Z,3.10
2022-10-19T11:31:10.031Z,3.42
2022-10-19T11:34:03.549Z,3.00
2022-10-19T11:36:48.764Z,3.03
2022-10-19T11:39:34.863Z,2.90
2022-10-19T11:45:31.251Z,3.08
2022-10-19T11:48:10.840Z,3.55
2022-10-19T11:51:04.128Z,2.90
2022-10-19T11:54:23.037Z,3.75
2022-10-19T11:57:03.496Z,3.20
2022-10-19T12:00:39.794Z,3.53
2022-10-19T12:05:43.476Z,3.03
2022-10-19T12:08:37.760Z,3.15
2022-10-19T12:11:39.219Z,3.17
2022-10-19T12:14:13.621Z,2.88
2022-10-19T12:16:45.444Z,3.20
2022-10-19T12:19:27.228Z,2.78
2022-10-19T12:22:00.484Z,2.85
2022-10-19T12:24:30.969Z,3.20
2022-10-19T12:26:59.794Z,3.15
2022-10-19T12:29:39.936Z,3.00
2022-10-19T12:32:08.824Z,3.38
2022-10-19T12:34:47.041Z,2.88
2022-10-19T12:37:29.668Z,3.58
2022-10-19T12:40:00.907Z,3.03
2022-10-19T12:42:51.764Z,3.60
2022-10-19T12:45:31.562Z,3.25
2022-10-19T12:48:19.140Z,3.22
2022-10-19T12:50:49.471Z,2.90
2022-10-19T12:53:40.745Z,3.58
2022-10-19T12:56:11.454Z,3.25
2022-10-19T12:58:47.435Z,3.38
2022-10-19T13:01:18.903Z,3.03
2022-10-19T13:03:48.140Z,3.10
2022-10-19T13:06:26.506Z,3.55
2022-10-19T13:08:54.208Z,3.30
2022-10-19T13:11:23.558Z,3.20
2022-10-19T13:13:58.954Z,3.80
2022-10-19T13:16:29.495Z,4.13
2022-10-19T13:19:06.312Z,5.63
2022-10-19T13:21:55.045Z,4.85
2022-10-19T13:24:25.495Z,4.63
2022-10-19T13:27:04.949Z,4.30
2022-10-19T13:29:41.530Z,4.32
2022-10-19T13:32:45.497Z,4.28
2022-10-19T13:35:33.873Z,4.72
2022-10-19T13:38:13.075Z,4.45
2022-10-19T13:40:49.192Z,4.45
2022-10-19T13:43:27.281Z,4.43
2022-10-19T13:46:16.309Z,4.57
2022-10-19T13:49:02.959Z,4.95
2022-10-19T13:52:07.917Z,4.72
2022-10-19T13:54:50.404Z,4.90
2022-10-19T13:57:56.156Z,4.70
2022-10-19T14:00:37.198Z,5.18
2022-10-19T14:03:23.965Z,5.65
2022-10-19T14:06:15.441Z,5.43
2022-10-19T14:08:58.033Z,5.60
2022-10-19T14:11:39.961Z,5.82
2022-10-19T14:14:14.543Z,6.28
2022-10-19T14:16:56.090Z,7.18
2022-10-19T14:19:33.265Z,5.82
2022-10-19T14:22:18.435Z,6.20
2022-10-19T14:24:45.956Z,6.22
2022-10-19T14:27:19.674Z,5.70
2022-10-19T14:29:50.493Z,6.65
2022-10-19T14:32:21.479Z,6.30
2022-10-19T14:34:49.686Z,7.05
2022-10-19T14:37:21.450Z,6.38
2022-10-19T14:40:26.463Z,6.75
2022-10-19T14:42:57.344Z,7.80
2022-10-19T14:45:30.686Z,7.40
2022-10-19T14:48:02.288Z,7.15
2022-10-19T14:50:35.732Z,6.60
2022-10-19T14:53:18.299Z,6.72
2022-10-19T14:55:46.574Z,6.95
2022-10-19T14:58:20.767Z,6.78
2022-10-19T15:00:50.714Z,6.55
2022-10-19T15:03:24.920Z,6.45
2022-10-19T15:05:56.652Z,6.95
2022-10-19T15:08:42.821Z,6.82
2022-10-19T15:11:22.342Z,6.32
2022-10-19T15:14:03.997Z,6.18
2022-10-19T15:16:54.333Z,43.05
2022-10-19T15:19:32.599Z,17.77
2022-10-19T15:22:39.263Z,12.27
2022-10-19T15:25:06.591Z,6.63
2022-10-19T15:27:47.589Z,6.75
2022-10-19T15:30:17.844Z,7.22
2022-10-19T15:32:48.615Z,7.93
2022-10-19T15:35:25.487Z,8.38
2022-10-19T15:38:00.899Z,7.88
2022-10-19T15:40:40.143Z,9.20
2022-10-19T15:43:35.623Z,9.07
2022-10-19T15:46:20.545Z,10.32
2022-10-19T15:48:55.949Z,9.93
2022-10-19T15:51:26.377Z,9.02
2022-10-19T15:54:02.984Z,9.85
2022-10-19T15:56:32.556Z,22.85
2022-10-19T15:59:01.910Z,14.32
2022-10-19T16:01:32.441Z,20.65
2022-10-19T16:04:00.402Z,10.10
2022-10-19T16:06:30.724Z,8.98
2022-10-19T16:09:00.078Z,8.20
2022-10-19T16:11:29.229Z,8.55
2022-10-19T16:13:56.552Z,7.82
2022-10-19T16:16:26.722Z,8.80
2022-10-19T16:18:55.012Z,9.55
2022-10-19T16:21:32.468Z,10.68
2022-10-19T16:23:59.705Z,9.65
2022-10-19T16:26:28.033Z,8.93
2022-10-19T16:28:55.683Z,9.05
2022-10-19T16:31:23.762Z,9.60
2022-10-19T16:33:52.022Z,9.77
2022-10-19T16:36:20.483Z,8.93
2022-10-19T16:38:48.156Z,8.35
2022-10-19T16:41:16.491Z,8.85
2022-10-19T16:43:43.993Z,9.43
2022-10-19T16:46:11.574Z,8.20
2022-10-19T16:48:38.907Z,9.23
2022-10-19T16:51:05.997Z,10.02
2022-10-19T16:53:34.431Z,10.05
2022-10-19T16:56:10.701Z,11.85
2022-10-19T16:58:38.597Z,11.75
2022-10-19T17:01:10.764Z,11.07
2022-10-19T17:03:38.278Z,10.25
2022-10-19T17:06:07.766Z,11.75
2022-10-19T17:08:36.968Z,12.13
2022-10-19T17:11:34.823Z,12.15
2022-10-19T17:14:05.931Z,11.68
2022-10-19T17:16:35.392Z,12.02
2022-10-19T17:19:05.136Z,12.45
2022-10-19T17:21:38.065Z,15.02
2022-10-19T17:24:07.876Z,12.93
2022-10-19T17:26:41.986Z,12.65
2022-10-19T17:29:10.036Z,14.00
2022-10-19T17:31:39.955Z,14.35
2022-10-19T17:34:08.743Z,14.50
2022-10-19T17:39:17.749Z,15.05
2022-10-19T17:41:47.786Z,15.95
2022-10-19T17:44:18.826Z,14.98
2022-10-19T17:46:46.559Z,13.32
2022-10-19T17:49:14.242Z,13.02
2022-10-19T17:51:42.199Z,14.23
2022-10-19T17:54:13.274Z,13.60
2022-10-19T17:56:41.468Z,13.88
2022-10-19T17:59:09.239Z,13.05
2022-10-19T18:01:37.709Z,12.52
2022-10-19T18:04:06.008Z,13.25
2022-10-19T18:06:35.512Z,13.50
2022-10-19T18:09:05.916Z,13.90
2022-10-19T18:11:37.489Z,13.32
2022-10-19T18:14:06.119Z,12.70
2022-10-19T18:16:37.139Z,12.95
2022-10-19T18:19:05.824Z,12.68
2022-10-19T18:21:36.536Z,13.02
2022-10-19T18:24:03.867Z,12.65
2022-10-19T18:26:33.198Z,11.95
2022-10-19T18:29:02.684Z,13.65
2022-10-19T18:31:31.778Z,17.25
2022-10-19T18:34:00.264Z,31.35
2022-10-19T18:36:27.959Z,40.30
2022-10-19T18:38:57.737Z,32.33
2022-10-19T18:41:25.627Z,22.67
2022-10-19T18:43:55.849Z,17.75
2022-10-19T18:46:24.685Z,18.58
2022-10-19T18:48:53.772Z,17.40
2022-10-19T18:51:22.778Z,14.40
2022-10-19T18:53:50.619Z,14.77
2022-10-19T18:56:20.475Z,14.20
2022-10-19T18:58:48.236Z,14.60
2022-10-19T19:01:23.078Z,13.73
2022-10-19T19:03:52.663Z,15.45
2022-10-19T19:06:26.275Z,16.83
2022-10-19T19:11:29.604Z,15.93
2022-10-19T19:14:03.957Z,17.52
2022-10-19T19:16:35.727Z,17.30
2022-10-19T19:19:03.668Z,16.92
2022-10-19T19:21:32.338Z,17.63
2022-10-19T19:24:02.495Z,19.15
2022-10-19T19:26:32.915Z,34.63
2022-10-19T19:29:00.119Z,37.92
2022-10-19T19:31:27.550Z,54.83
2022-10-19T19:33:55.192Z,25.10
2022-10-19T19:36:22.553Z,18.67
2022-10-19T19:38:51.919Z,20.02
2022-10-19T19:41:19.210Z,18.50
2022-10-19T19:43:47.033Z,24.67
2022-10-19T19:46:19.063Z,24.50
2022-10-19T19:48:48.143Z,20.65
2022-10-19T19:51:21.282Z,20.65
2022-10-19T19:53:48.530Z,19.63
2022-10-19T19:56:16.750Z,20.05
2022-10-19T19:58:45.655Z,21.42
2022-10-19T20:01:19.142Z,19.10
2022-10-19T20:06:18.682Z,19.23
2022-10-19T20:11:17.849Z,19.88
2022-10-19T20:13:46.141Z,21.83
2022-10-19T20:16:17.176Z,20.45
2022-10-19T20:18:47.093Z,19.15
2022-10-19T20:21:15.798Z,20.38
2022-10-19T20:23:49.798Z,19.10
2022-10-19T20:26:25.038Z,19.95
2022-10-19T20:28:52.999Z,20.52
2022-10-19T20:31:21.195Z,22.30
2022-10-19T20:33:48.858Z,21.17
2022-10-19T20:36:23.275Z,21.38
2022-10-19T20:38:59.527Z,20.33
2022-10-19T20:41:28.579Z,19.92
2022-10-19T20:44:00.116Z,92.43
2022-10-19T20:49:01.316Z,38.00
2022-10-19T20:51:34.533Z,23.20
2022-10-19T20:54:05.411Z,21.40
2022-10-19T20:56:36.494Z,20.55
2022-10-19T20:59:08.295Z,20.10
2022-10-19T21:01:38.119Z,20.27
2022-10-19T21:04:08.249Z,20.08
2022-10-19T21:06:39.496Z,20.50
2022-10-19T21:09:08.499Z,21.27
2022-10-19T21:11:38.634Z,19.95
2022-10-19T21:14:13.541Z,20.33
2022-10-19T21:16:41.332Z,20.08
2022-10-19T21:19:13.325Z,19.90
2022-10-19T21:21:44.611Z,20.35
2022-10-19T21:24:20.468Z,19.38
2022-10-19T21:26:49.352Z,19.38
2022-10-19T21:29:17.285Z,20.05
2022-10-19T21:31:49.119Z,19.00
2022-10-19T21:34:19.628Z,20.00
2022-10-19T21:36:47.325Z,19.75
2022-10-19T21:39:15.372Z,20.33
2022-10-19T21:41:42.577Z,22.38
2022-10-19T21:44:10.020Z,21.45
2022-10-19T21:46:37.537Z,21.58
2022-10-19T21:49:05.828Z,20.60
2022-10-19T21:51:39.794Z,21.48
2022-10-19T21:56:43.393Z,23.52
2022-10-19T21:59:12.384Z,23.73
2022-10-19T22:01:41.581Z,22.70
2022-10-19T22:04:14.962Z,23.48
2022-10-19T22:06:43.520Z,23.90
2022-10-19T22:09:41.026Z,25.65
2022-10-19T22:12:18.643Z,24.75
2022-10-19T22:14:45.853Z,24.42
2022-10-19T22:17:13.648Z,23.77
2022-10-19T22:19:41.148Z,24.25
2022-10-19T22:22:08.342Z,23.75
2022-10-19T22:24:39.151Z,24.73
2022-10-19T22:27:06.518Z,23.35
2022-10-19T22:29:33.750Z,24.08
2022-10-19T22:32:01.220Z,25.63
2022-10-19T22:34:56.129Z,23.83
2022-10-19T22:37:23.778Z,23.98
2022-10-19T22:39:51.411Z,25.23
2022-10-19T22:42:30.981Z,23.90
2022-10-19T22:45:00.121Z,22.50
2022-10-19T22:47:30.377Z,23.45
2022-10-19T22:50:01.073Z,22.45
2022-10-19T22:52:29.374Z,22.00
2022-10-19T22:54:57.810Z,23.63
2022-10-19T22:57:25.512Z,22.73
2022-10-19T22:59:53.026Z,24.33
2022-10-19T23:02:22.936Z,22.83
2022-10-19T23:04:58.534Z,22.80
2022-10-19T23:07:32.165Z,23.05
2022-10-19T23:10:00.639Z,23.20
2022-10-19T23:12:32.959Z,23.10
2022-10-19T23:15:00.821Z,22.17
2022-10-19T23:17:30.654Z,22.08
2022-10-19T23:19:58.193Z,21.85
2022-10-19T23:22:25.382Z,21.20
2022-10-19T23:24:52.616Z,22.48
2022-10-19T23:27:21.417Z,21.77
2022-10-19T23:29:48.739Z,22.08
2022-10-19T23:32:16.016Z,21.83
2022-10-19T23:34:46.005Z,22.27
2022-10-19T23:37:16.508Z,21.45
2022-10-19T23:39:44.024Z,22.77
2022-10-19T23:42:11.212Z,21.85
2022-10-19T23:44:38.996Z,21.92
2022-10-19T23:47:06.296Z,23.05
2022-10-19T23:49:33.883Z,21.75
2022-10-19T23:52:01.497Z,21.02
2022-10-19T23:54:28.703Z,20.45
2022-10-19T23:56:56.404Z,21.60
2022-10-19T23:59:23.887Z,21.08
